Time;durP1;ratioP1;P1;durP2;ratioP2;P2;SDS_P1;SDS_P2;PMS_P1;PMS_P2;Temp;Humidity;BMP_temperature;BMP_pressure;BME280_temperature;BME280_humidity;BME280_pressure;Samples;Min_cycle;Max_cycle;Signal;HPM_P1;HPM_P2
2021/11/06 00:01:11;;;;;;;11.12;6.20;;;;;;;12.38;75.34;100796.41;1749468;82;21665;-63
2021/11/06 00:03:40;;;;;;;12.80;6.58;;;;;;;12.34;75.33;100796.45;1747692;82;21090;-62
2021/11/06 00:06:09;;;;;;;10.13;6.00;;;;;;;12.28;75.39;100804.97;1759876;81;21110;-61
2021/11/06 00:08:38;;;;;;;10.08;6.22;;;;;;;12.24;75.30;100809.16;1747889;82;21545;-63
2021/11/06 00:11:07;;;;;;;11.28;6.60;;;;;;;12.19;75.38;100813.03;1749274;82;21500;-61
2021/11/06 00:13:37;;;;;;;12.43;6.95;;;;;;;12.16;75.67;100816.17;1760069;81;21019;-63
2021/11/06 00:16:06;;;;;;;11.53;7.40;;;;;;;12.14;76.01;100814.14;1749041;81;21153;-62
2021/11/06 00:18:37;;;;;;;12.03;7.05;;;;;;;12.13;76.18;100819.31;1759934;81;21046;-64
2021/11/06 00:21:06;;;;;;;12.33;7.62;;;;;;;12.11;76.20;100818.66;1749519;82;21451;-62
2021/11/06 00:23:36;;;;;;;11.30;6.40;;;;;;;12.09;76.14;100815.27;1760026;81;21059;-64
2021/11/06 00:26:05;;;;;;;11.80;7.10;;;;;;;12.06;76.03;100819.78;1735866;82;21459;-62
2021/11/06 00:28:34;;;;;;;11.22;6.45;;;;;;;12.00;76.12;100818.67;1724229;83;21127;-62
2021/11/06 00:31:03;;;;;;;11.95;6.80;;;;;;;11.95;76.10;100818.94;1724288;83;21458;-62
2021/11/06 00:33:32;;;;;;;12.13;6.50;;;;;;;11.89;76.10;100822.47;1724456;83;21064;-63
2021/11/06 00:36:01;;;;;;;11.08;5.97;;;;;;;11.85;76.16;100832.14;1742556;81;21067;-62
2021/11/06 00:38:30;;;;;;;12.33;6.20;;;;;;;11.79;76.32;100820.56;1748832;81;21796;-63
2021/11/06 00:40:59;;;;;;;10.20;5.83;;;;;;;11.73;76.39;100820.80;1724272;83;21583;-62
2021/11/06 00:43:28;;;;;;;10.48;6.33;;;;;;;11.72;76.69;100819.94;1724502;83;21518;-62
2021/11/06 00:45:57;;;;;;;8.25;4.72;;;;;;;11.71;76.72;100830.59;1728789;81;21231;-64
2021/11/06 00:48:27;;;;;;;7.25;4.00;;;;;;;11.69;76.34;100840.89;1755724;81;21526;-61
2021/11/06 00:50:56;;;;;;;9.18;5.80;;;;;;;11.64;75.37;100840.63;1755721;82;21596;-61
2021/11/06 00:53:25;;;;;;;5.72;3.87;;;;;;;11.57;74.59;100842.44;1755847;82;21060;-61
2021/11/06 00:55:55;;;;;;;5.47;3.50;;;;;;;11.50;73.74;100853.86;1755850;82;21499;-61
2021/11/06 00:58:24;;;;;;;6.00;3.20;;;;;;;11.40;73.76;100843.19;1741670;81;21154;-62
2021/11/06 01:00:54;;;;;;;7.03;3.17;;;;;;;11.34;73.73;100832.13;1737185;82;21460;-65
2021/11/06 01:03:23;;;;;;;5.42;3.08;;;;;;;11.30;73.91;100835.78;1737300;82;21150;-62
2021/11/06 01:05:53;;;;;;;4.90;3.27;;;;;;;11.25;73.86;100833.29;1737360;82;21435;-62
2021/11/06 01:08:21;;;;;;;6.28;3.60;;;;;;;11.18;74.27;100829.61;1739611;81;21075;-62
2021/11/06 01:10:50;;;;;;;5.62;3.25;;;;;;;11.11;74.74;100826.78;1737168;82;21141;-61
2021/11/06 01:13:19;;;;;;;5.40;3.33;;;;;;;11.09;74.53;100831.61;1737169;82;21044;-62
2021/11/06 01:15:47;;;;;;;5.17;3.60;;;;;;;11.06;74.83;100840.22;1737337;82;21539;-62
2021/11/06 01:18:17;;;;;;;6.92;3.70;;;;;;;11.03;75.09;100844.16;1739923;80;21170;-63
2021/11/06 01:20:46;;;;;;;8.23;4.10;;;;;;;11.01;75.45;100849.50;1750475;81;21469;-66
2021/11/06 01:23:15;;;;;;;7.22;4.15;;;;;;;10.98;75.65;100845.25;1750803;80;21153;-62
2021/11/06 01:25:46;;;;;;;7.05;3.72;;;;;;;10.96;75.61;100845.10;1823185;79;21081;-62
2021/11/06 01:28:15;;;;;;;6.75;4.50;;;;;;;10.94;75.52;100850.78;1751204;81;21039;-62
2021/11/06 01:30:44;;;;;;;8.15;4.60;;;;;;;10.91;75.67;100851.16;1700471;82;21545;-62
2021/11/06 01:33:14;;;;;;;6.97;4.85;;;;;;;10.88;75.44;100869.88;1764186;81;21165;-65
2021/11/06 01:35:43;;;;;;;7.28;4.37;;;;;;;10.86;75.61;100875.54;1764322;81;21435;-62
2021/11/06 01:38:12;;;;;;;8.55;5.22;;;;;;;10.84;75.53;100877.63;1764260;81;21078;-62
2021/11/06 01:40:43;;;;;;;9.23;4.83;;;;;;;10.85;75.69;100877.95;1782721;79;21050;-62
2021/11/06 01:43:12;;;;;;;9.18;5.35;;;;;;;10.85;75.74;100873.84;1788319;80;21505;-61
2021/11/06 01:45:40;;;;;;;8.70;4.72;;;;;;;10.85;75.83;100885.33;1788543;80;21051;-61
2021/11/06 01:48:10;;;;;;;9.75;4.58;;;;;;;10.82;75.48;100884.33;1788461;80;21544;-63
2021/11/06 01:50:39;;;;;;;7.75;4.75;;;;;;;10.77;74.68;100883.00;1799648;79;21047;-62
2021/11/06 01:53:09;;;;;;;7.45;4.67;;;;;;;10.76;74.92;100899.64;1750824;81;21593;-62
2021/11/06 01:55:39;;;;;;;8.48;4.28;;;;;;;10.74;74.87;100892.97;1749364;82;21479;-62
2021/11/06 01:58:08;;;;;;;5.97;4.15;;;;;;;10.75;74.88;100900.16;1751224;81;21173;-63
2021/11/06 02:00:37;;;;;;;7.12;4.08;;;;;;;10.74;74.79;100901.71;1720898;83;21034;-64
2021/11/06 02:03:07;;;;;;;7.62;3.55;;;;;;;10.68;74.53;100905.20;1726093;83;21494;-64
2021/11/06 02:05:35;;;;;;;6.40;3.58;;;;;;;10.67;74.78;100906.23;1725028;83;21064;-61
2021/11/06 02:08:05;;;;;;;7.45;3.58;;;;;;;10.64;74.48;100917.56;1719314;83;21464;-63
2021/11/06 02:10:35;;;;;;;7.60;3.50;;;;;;;10.56;74.24;100925.86;1719451;83;21029;-63
2021/11/06 02:13:04;;;;;;;5.42;3.70;;;;;;;10.53;74.39;100928.97;1720225;82;21425;-62
2021/11/06 02:15:33;;;;;;;10.78;3.90;;;;;;;10.53;74.57;100924.34;1719776;83;21452;-63
2021/11/06 02:18:03;;;;;;;6.58;4.17;;;;;;;10.50;73.32;100933.45;1719409;83;21040;-63
2021/11/06 02:20:32;;;;;;;9.13;3.98;;;;;;;10.45;73.39;100938.12;1719193;83;21080;-63
2021/11/06 02:23:01;;;;;;;5.83;3.87;;;;;;;10.42;73.86;100940.70;1719629;83;21105;-63
2021/11/06 02:25:31;;;;;;;6.10;3.40;;;;;;;10.38;74.01;100945.33;1719278;83;21096;-63
2021/11/06 02:28:01;;;;;;;5.70;3.60;;;;;;;10.37;74.17;100949.95;1715620;83;21072;-62
2021/11/06 02:30:31;;;;;;;7.70;3.75;;;;;;;10.34;73.54;100953.58;1721885;82;21331;-62
2021/11/06 02:32:59;;;;;;;5.65;3.67;;;;;;;10.26;73.29;100961.34;1719459;83;21088;-62
2021/11/06 02:35:29;;;;;;;6.95;3.67;;;;;;;10.21;73.58;100963.77;1669910;83;21527;-62
2021/11/06 02:37:58;;;;;;;7.17;3.65;;;;;;;10.16;73.17;100962.06;1719306;83;21061;-62
2021/11/06 02:40:26;;;;;;;6.90;3.85;;;;;;;10.09;73.41;100960.56;1723561;82;21003;-61
2021/11/06 02:42:56;;;;;;;5.37;3.40;;;;;;;10.07;73.92;100980.43;1725165;83;21520;-63
2021/11/06 02:45:27;;;;;;;6.00;3.85;;;;;;;10.04;74.07;100986.27;1725589;83;21446;-63
2021/11/06 02:47:56;;;;;;;5.37;3.05;;;;;;;9.99;74.05;100983.73;1725455;83;21015;-63
2021/11/06 02:50:25;;;;;;;5.67;3.08;;;;;;;9.96;74.38;100989.56;1725702;82;21525;-63
2021/11/06 02:52:54;;;;;;;5.40;3.37;;;;;;;9.92;74.98;100986.85;1719627;83;21095;-63
2021/11/06 02:55:24;;;;;;;8.05;3.70;;;;;;;9.89;75.21;100994.91;1719659;83;21128;-62
2021/11/06 02:57:52;;;;;;;7.25;3.65;;;;;;;9.87;75.45;100994.75;1722964;82;21552;-63
2021/11/06 03:00:22;;;;;;;7.00;3.80;;;;;;;9.81;75.53;101001.79;1725236;83;21539;-63
2021/11/06 03:02:50;;;;;;;5.90;3.58;;;;;;;9.70;75.91;100992.05;1724987;83;21121;-64
2021/11/06 03:05:21;;;;;;;7.22;3.70;;;;;;;9.67;76.53;100988.82;1724987;83;21158;-63
2021/11/06 03:07:51;;;;;;;8.58;3.47;;;;;;;9.63;76.84;100997.90;1721451;83;21070;-64
2021/11/06 03:10:20;;;;;;;5.78;3.37;;;;;;;9.60;76.74;101006.46;1690651;85;21038;-68
2021/11/06 03:12:51;;;;;;;6.58;3.47;;;;;;;9.57;76.57;101010.91;1690708;85;21083;-63
2021/11/06 03:15:22;;;;;;;5.72;3.60;;;;;;;9.54;77.03;101012.12;1690574;85;21043;-63
2021/11/06 03:17:51;;;;;;;5.30;3.33;;;;;;;9.51;77.38;101013.84;1713145;83;21518;-62
2021/11/06 03:20:20;;;;;;;5.47;3.27;;;;;;;9.49;77.08;101009.06;1725096;83;21514;-63
2021/11/06 03:22:51;;;;;;;4.85;3.60;;;;;;;9.45;77.17;101008.22;1724970;83;21097;-62
2021/11/06 03:25:20;;;;;;;5.83;3.50;;;;;;;9.44;77.21;101014.72;1724934;83;21660;-63
2021/11/06 03:27:49;;;;;;;5.20;3.77;;;;;;;9.39;77.32;100999.34;1722870;83;21047;-65
2021/11/06 03:30:18;;;;;;;6.25;3.60;;;;;;;9.38;77.39;101001.23;1725048;83;21038;-63
2021/11/06 03:32:49;;;;;;;6.28;3.92;;;;;;;9.39;77.61;101004.31;1725031;83;21051;-63
2021/11/06 03:35:18;;;;;;;6.58;3.77;;;;;;;9.41;77.84;100988.58;1725234;83;21046;-62
2021/11/06 03:37:47;;;;;;;5.28;3.55;;;;;;;9.39;77.96;100980.20;1718116;83;21612;-62
2021/11/06 03:40:16;;;;;;;7.25;3.70;;;;;;;9.42;78.23;100979.34;1690885;85;21479;-64
2021/11/06 03:42:44;;;;;;;6.35;3.58;;;;;;;9.41;77.86;100982.25;1690708;84;21569;-64
2021/11/06 03:45:13;;;;;;;6.87;4.12;;;;;;;9.39;78.08;100974.22;1690814;84;21099;-62
2021/11/06 03:47:42;;;;;;;7.58;3.87;;;;;;;9.41;78.43;100991.31;1690818;84;21541;-62
2021/11/06 03:50:12;;;;;;;7.42;4.40;;;;;;;9.41;78.89;100996.78;1720683;83;21532;-62
2021/11/06 03:52:41;;;;;;;5.95;3.83;;;;;;;9.38;79.38;100998.50;1725293;83;21062;-62
2021/11/06 03:55:11;;;;;;;5.22;3.95;;;;;;;9.34;79.80;101003.13;1724588;83;21106;-61
2021/11/06 03:57:40;;;;;;;5.70;4.37;;;;;;;9.29;80.09;100994.08;1725153;83;21034;-63
2021/11/06 04:00:12;;;;;;;6.08;3.40;;;;;;;9.27;80.25;100989.30;1703976;83;21583;-63
2021/11/06 04:02:43;;;;;;;7.30;4.45;;;;;;;9.28;80.24;100991.52;1690902;84;21035;-63
2021/11/06 04:05:12;;;;;;;5.53;3.77;;;;;;;9.29;80.32;100996.81;1690571;84;21043;-62
2021/11/06 04:07:43;;;;;;;6.28;4.33;;;;;;;9.30;80.47;100990.83;1690668;84;20984;-62
2021/11/06 04:10:11;;;;;;;5.50;3.92;;;;;;;9.28;80.42;100992.38;1701137;83;21523;-63
2021/11/06 04:15:31;;;;;;;5.37;3.60;;;;;;;9.26;79.96;101004.52;1724935;82;21061;-65
2021/11/06 04:18:02;;;;;;;5.30;3.20;;;;;;;9.17;78.81;101010.00;1724696;83;21055;-63
2021/11/06 04:20:51;;;;;;;5.50;3.58;;;;;;;9.17;78.44;101014.10;1655998;85;21006;-63
2021/11/06 04:23:20;;;;;;;5.65;3.37;;;;;;;9.21;78.34;101011.36;1664973;86;21097;-63
2021/11/06 04:25:50;;;;;;;3.50;2.95;;;;;;;9.23;78.25;101003.49;1662354;86;22218;-62
2021/11/06 04:28:20;;;;;;;6.30;3.30;;;;;;;9.21;77.48;100994.95;1662455;86;21626;-63
2021/11/06 04:30:48;;;;;;;5.08;3.20;;;;;;;9.18;77.08;100995.30;1662894;86;21055;-63
2021/11/06 04:33:17;;;;;;;6.22;3.40;;;;;;;9.15;76.50;100993.43;1645756;87;21152;-64
2021/11/06 04:35:46;;;;;;;5.60;3.30;;;;;;;9.13;76.43;100987.28;1673017;84;21609;-64
2021/11/06 04:38:15;;;;;;;4.60;3.20;;;;;;;9.15;76.65;100994.28;1692249;85;21153;-63
2021/11/06 04:40:44;;;;;;;6.35;3.15;;;;;;;9.15;76.26;101003.85;1643993;87;21049;-63
2021/11/06 04:43:14;;;;;;;5.87;3.85;;;;;;;9.13;76.14;101020.94;1703821;84;21081;-63
2021/11/06 04:45:44;;;;;;;5.03;3.40;;;;;;;9.11;76.27;101013.94;1727516;82;21038;-62
2021/11/06 04:48:12;;;;;;;6.47;3.30;;;;;;;9.06;75.77;101000.77;1737003;82;21054;-63
2021/11/06 04:50:42;;;;;;;4.60;3.20;;;;;;;9.07;75.46;101002.98;1735172;81;21013;-63
2021/11/06 04:53:11;;;;;;;5.78;3.52;;;;;;;9.08;75.46;101005.55;1730864;83;21041;-62
2021/11/06 04:55:40;;;;;;;4.58;3.42;;;;;;;9.11;75.58;100998.91;1713102;83;21058;-63
2021/11/06 04:58:09;;;;;;;5.80;3.27;;;;;;;9.14;75.76;100998.05;1698292;83;21013;-65
2021/11/06 05:00:38;;;;;;;5.80;3.87;;;;;;;9.18;75.42;101016.32;1721821;82;21171;-64
2021/11/06 05:03:08;;;;;;;4.70;2.90;;;;;;;9.16;74.68;101022.48;1725131;83;21094;-63
2021/11/06 05:05:37;;;;;;;4.50;3.22;;;;;;;9.16;74.70;101026.58;1725203;83;21082;-63
2021/11/06 05:08:06;;;;;;;5.17;3.30;;;;;;;9.13;74.52;101022.31;1730201;81;21478;-63
2021/11/06 05:10:35;;;;;;;5.50;3.10;;;;;;;9.13;74.50;101026.41;1740838;82;21518;-63
2021/11/06 05:13:04;;;;;;;8.58;3.92;;;;;;;9.16;74.31;101029.31;1740619;82;21462;-63
2021/11/06 05:15:33;;;;;;;6.33;3.67;;;;;;;9.14;73.94;101035.47;1740553;82;20996;-63
2021/11/06 05:18:03;;;;;;;5.33;3.45;;;;;;;9.12;73.47;101034.27;1742350;81;21007;-64
2021/11/06 05:20:34;;;;;;;5.67;3.60;;;;;;;9.13;72.79;101042.81;1740456;82;21508;-62
2021/11/06 05:23:05;;;;;;;6.67;4.03;;;;;;;9.15;73.03;101046.74;1740288;82;21044;-62
2021/11/06 05:25:37;;;;;;;5.45;3.65;;;;;;;9.17;73.44;101053.75;1740549;82;21071;-63
2021/11/06 05:28:06;;;;;;;8.53;4.45;;;;;;;9.21;72.95;101045.54;1740748;82;21035;-63
2021/11/06 05:30:35;;;;;;;6.55;4.28;;;;;;;9.21;73.08;101044.17;1767471;81;21054;-69
2021/11/06 05:33:04;;;;;;;5.10;3.65;;;;;;;9.21;72.47;101049.64;1751509;81;21566;-64
2021/11/06 05:35:33;;;;;;;9.18;4.33;;;;;;;9.22;72.31;101046.39;1751623;81;21070;-63
2021/11/06 05:38:02;;;;;;;9.20;4.17;;;;;;;9.20;72.28;101045.20;1751601;82;21470;-63
2021/11/06 05:40:32;;;;;;;6.20;3.47;;;;;;;9.23;71.60;101053.56;1750207;82;21062;-63
2021/11/06 05:43:02;;;;;;;5.25;3.52;;;;;;;9.25;71.50;101054.25;1782469;80;21178;-63
2021/11/06 05:45:31;;;;;;;5.70;3.77;;;;;;;9.26;71.38;101053.73;1751375;82;21027;-63
2021/11/06 05:48:00;;;;;;;6.30;3.77;;;;;;;9.26;71.73;101060.57;1751232;82;21055;-68
2021/11/06 05:50:30;;;;;;;7.72;4.03;;;;;;;9.27;71.85;101060.40;1776096;80;21051;-63
2021/11/06 05:52:59;;;;;;;8.25;4.37;;;;;;;9.29;71.79;101057.49;1751616;82;21475;-62
2021/11/06 05:55:30;;;;;;;5.60;4.03;;;;;;;9.30;71.97;101062.78;1751577;82;21043;-63
2021/11/06 05:57:59;;;;;;;8.68;4.55;;;;;;;9.32;71.60;101059.88;1751456;82;21066;-61
2021/11/06 06:00:28;;;;;;;7.08;4.50;;;;;;;9.34;71.60;101056.45;1725757;81;21455;-63
2021/11/06 06:02:57;;;;;;;9.55;4.45;;;;;;;9.35;71.55;101065.00;1721358;83;21062;-64
2021/11/06 06:05:25;;;;;;;7.00;4.00;;;;;;;9.33;71.15;101067.91;1718473;83;21603;-67
2021/11/06 06:07:54;;;;;;;5.90;3.62;;;;;;;9.32;71.32;101066.72;1721664;83;21036;-62
2021/11/06 06:10:23;;;;;;;7.40;4.28;;;;;;;9.31;70.68;101065.00;1735312;81;21114;-62
2021/11/06 06:12:53;;;;;;;11.50;7.08;;;;;;;9.28;70.90;101065.35;1744534;82;21078;-73
2021/11/06 06:15:24;;;;;;;7.22;4.08;;;;;;;9.30;71.37;101075.61;1743208;82;21451;-63
2021/11/06 06:17:54;;;;;;;6.72;4.03;;;;;;;9.29;70.30;101082.95;1743319;82;21644;-61
2021/11/06 06:20:23;;;;;;;6.87;4.20;;;;;;;9.28;70.23;101084.50;1749901;81;21174;-62
2021/11/06 06:22:53;;;;;;;6.55;3.87;;;;;;;9.26;70.37;101084.67;1750047;82;21466;-71
2021/11/06 06:25:25;;;;;;;7.15;4.03;;;;;;;9.27;70.00;101091.84;1736701;82;21071;-62
2021/11/06 06:27:54;;;;;;;8.55;4.30;;;;;;;9.25;69.91;101095.78;1735115;83;21075;-63
2021/11/06 06:30:23;;;;;;;6.20;3.80;;;;;;;9.22;69.81;101099.71;1758334;81;21044;-63
2021/11/06 06:32:52;;;;;;;7.20;4.37;;;;;;;9.21;69.73;101096.12;1700306;84;21154;-62
2021/11/06 06:35:21;;;;;;;8.35;4.30;;;;;;;9.20;69.37;101100.40;1700645;84;21796;-64
2021/11/06 06:37:50;;;;;;;6.80;4.70;;;;;;;9.17;69.46;101104.33;1711715;82;21082;-64
2021/11/06 06:40:18;;;;;;;5.60;3.95;;;;;;;9.17;69.15;101104.84;1736582;82;21031;-63
2021/11/06 06:42:48;;;;;;;8.63;4.47;;;;;;;9.13;68.92;101105.70;1735172;82;21036;-64
2021/11/06 06:45:17;;;;;;;9.05;4.37;;;;;;;9.14;69.59;101111.51;1760611;81;21616;-64
2021/11/06 06:47:47;;;;;;;8.78;4.40;;;;;;;9.16;69.38;101108.09;1736721;82;21000;-63
2021/11/06 06:50:15;;;;;;;7.08;3.85;;;;;;;9.13;69.10;101108.43;1691315;84;21003;-63
2021/11/06 06:52:45;;;;;;;7.58;4.83;;;;;;;9.12;69.31;101106.72;1692856;85;21038;-63
2021/11/06 06:55:14;;;;;;;7.37;4.70;;;;;;;9.14;69.34;101119.70;1721799;82;21063;-64
2021/11/06 06:57:43;;;;;;;7.22;4.42;;;;;;;9.13;69.48;101111.67;1684598;85;21107;-64
2021/11/06 07:00:14;;;;;;;9.35;5.10;;;;;;;9.17;69.36;101114.41;1716837;82;21483;-63
2021/11/06 07:02:42;;;;;;;9.65;5.83;;;;;;;9.18;69.43;101116.97;1716546;83;21055;-63
2021/11/06 07:05:12;;;;;;;8.48;4.80;;;;;;;9.19;69.09;101126.88;1716083;83;21104;-64
2021/11/06 07:07:41;;;;;;;8.35;5.08;;;;;;;9.20;69.10;101130.48;1716497;83;21075;-63
2021/11/06 07:10:10;;;;;;;8.68;4.70;;;;;;;9.22;69.05;101131.16;1717236;82;21003;-62
2021/11/06 07:12:41;;;;;;;8.40;4.80;;;;;;;9.23;68.94;101131.50;1713697;83;21549;-63
2021/11/06 07:15:12;;;;;;;7.53;4.70;;;;;;;9.23;68.63;101126.54;1655041;86;21115;-65
2021/11/06 07:17:40;;;;;;;7.22;4.70;;;;;;;9.23;68.43;101123.30;1655038;87;21544;-64
2021/11/06 07:20:11;;;;;;;8.90;4.72;;;;;;;9.24;68.40;101122.78;1664619;83;21554;-63
2021/11/06 07:22:41;;;;;;;8.93;4.90;;;;;;;9.24;68.38;101129.62;1690699;85;21071;-63
2021/11/06 07:25:12;;;;;;;10.28;5.10;;;;;;;9.27;68.69;101125.17;1690871;85;21579;-65
2021/11/06 07:27:41;;;;;;;8.53;4.40;;;;;;;9.48;69.17;101121.39;1690698;85;21517;-62
2021/11/06 07:30:11;;;;;;;7.70;4.50;;;;;;;9.85;67.39;101114.84;1690647;85;21099;-63
2021/11/06 07:32:40;;;;;;;9.95;5.40;;;;;;;10.27;66.81;101116.42;1715948;81;21559;-63
2021/11/06 07:35:09;;;;;;;7.80;4.47;;;;;;;10.69;65.82;101107.83;1735223;83;21025;-62
2021/11/06 07:37:38;;;;;;;7.42;5.00;;;;;;;11.14;64.34;101104.78;1735098;83;21083;-63
2021/11/06 07:40:09;;;;;;;7.87;4.90;;;;;;;11.52;62.17;101115.77;1733620;83;21483;-66
2021/11/06 07:42:41;;;;;;;10.00;5.08;;;;;;;11.78;61.37;101118.13;1716654;82;21537;-63
2021/11/06 07:45:11;;;;;;;7.00;4.45;;;;;;;12.08;60.13;101108.86;1735020;82;21123;-63
2021/11/06 07:47:40;;;;;;;6.95;4.72;;;;;;;12.30;58.71;101109.25;1735360;82;21047;-63
2021/11/06 07:50:09;;;;;;;6.67;4.05;;;;;;;12.46;58.28;101129.36;1735101;83;21012;-62
2021/11/06 07:52:39;;;;;;;5.55;3.85;;;;;;;12.55;57.43;101132.32;1735273;82;21447;-62
2021/11/06 07:55:08;;;;;;;7.30;3.85;;;;;;;12.57;57.23;101143.98;1735249;83;21093;-63
2021/11/06 07:57:37;;;;;;;6.50;4.12;;;;;;;12.62;56.83;101143.73;1760539;81;21067;-61
2021/11/06 08:00:10;;;;;;;6.58;3.70;;;;;;;12.64;56.71;101142.16;1741802;81;21146;-66
2021/11/06 08:02:40;;;;;;;11.22;5.08;;;;;;;12.58;56.11;101139.66;1771967;81;20972;-64
2021/11/06 08:05:09;;;;;;;6.75;4.15;;;;;;;12.44;56.75;101147.41;1750770;82;21092;-63
2021/11/06 08:07:41;;;;;;;8.10;4.40;;;;;;;12.36;57.75;101149.75;1821669;79;21077;-62
2021/11/06 08:10:11;;;;;;;6.60;4.35;;;;;;;12.46;57.20;101149.97;1750861;82;21154;-63
2021/11/06 08:12:41;;;;;;;6.42;4.10;;;;;;;12.38;55.85;101158.66;1749316;82;21019;-65
2021/11/06 08:15:13;;;;;;;9.00;4.05;;;;;;;12.20;56.96;101158.68;1750820;82;21158;-62
2021/11/06 08:17:44;;;;;;;5.75;3.77;;;;;;;12.06;56.59;101159.01;1821322;79;20994;-63
2021/11/06 08:20:13;;;;;;;7.62;4.25;;;;;;;11.83;57.21;101166.47;1788299;80;21038;-64
2021/11/06 08:22:43;;;;;;;7.17;4.33;;;;;;;11.59;57.07;101174.36;1788370;80;21082;-62
2021/11/06 08:25:15;;;;;;;6.90;4.35;;;;;;;11.31;58.13;101168.59;1788408;80;21580;-61
2021/11/06 08:27:48;;;;;;;13.70;4.97;;;;;;;11.17;58.90;101184.48;1788411;80;21482;-62
2021/11/06 08:30:21;;;;;;;8.28;4.70;;;;;;;11.11;59.51;101176.47;1815726;79;21478;-64
2021/11/06 08:32:50;;;;;;;8.03;4.50;;;;;;;11.08;59.48;101168.09;1790936;80;21014;-63
2021/11/06 08:35:21;;;;;;;6.58;4.30;;;;;;;11.05;59.50;101156.11;1791102;80;21011;-61
2021/11/06 08:37:50;;;;;;;6.45;3.95;;;;;;;11.02;59.73;101168.78;1791079;80;21548;-62
2021/11/06 08:40:19;;;;;;;9.60;4.80;;;;;;;11.00;59.59;101172.22;1808407;79;21515;-69
2021/11/06 08:42:49;;;;;;;8.93;4.50;;;;;;;10.99;60.36;101166.41;1823194;79;21050;-62
2021/11/06 08:45:18;;;;;;;6.55;4.00;;;;;;;11.03;60.19;101160.03;1823054;79;21486;-62
2021/11/06 08:47:48;;;;;;;10.78;4.80;;;;;;;11.01;58.21;101155.25;1823158;79;21030;-61
2021/11/06 08:50:20;;;;;;;4.85;3.40;;;;;;;10.91;58.27;101165.60;1818808;79;21116;-63
2021/11/06 08:52:50;;;;;;;7.10;3.83;;;;;;;10.81;58.29;101167.20;1751177;82;21508;-63
2021/11/06 08:55:20;;;;;;;6.50;4.20;;;;;;;10.72;58.39;101154.06;1772712;81;21004;-63
2021/11/06 08:57:49;;;;;;;8.10;4.37;;;;;;;10.67;58.77;101157.02;1750839;82;21028;-62
2021/11/06 09:00:31;;;;;;;7.20;4.45;;;;;;;10.64;59.05;101168.33;1798643;79;21094;-66
2021/11/06 09:02:56;;;;;;;7.58;4.17;;;;;;;10.66;59.64;101163.52;1783112;79;21081;-67
2021/11/06 09:05:25;;;;;;;7.33;4.10;;;;;;;10.73;59.72;101158.52;1775135;79;21490;-66
2021/11/06 09:07:59;;;;;;;7.25;3.95;;;;;;;10.80;59.14;101165.50;1719781;83;21027;-64
2021/11/06 09:10:27;;;;;;;6.75;4.05;;;;;;;10.76;58.00;101157.30;1730448;82;21023;-63
2021/11/06 09:12:56;;;;;;;5.37;3.27;;;;;;;10.74;58.39;101156.63;1726125;82;21107;-66
2021/11/06 09:15:25;;;;;;;6.58;3.52;;;;;;;10.72;57.90;101149.10;1720121;83;21055;-65
2021/11/06 09:17:55;;;;;;;5.83;3.33;;;;;;;10.67;57.67;101156.49;1720012;83;21063;-62
2021/11/06 09:20:25;;;;;;;6.75;3.80;;;;;;;10.65;57.24;101149.48;1748244;82;21030;-66
2021/11/06 09:22:54;;;;;;;7.70;3.15;;;;;;;10.61;57.51;101164.58;1746834;82;21024;-68
2021/11/06 09:25:24;;;;;;;5.28;3.08;;;;;;;10.56;56.75;101145.94;1681595;85;21066;-65
2021/11/06 09:27:53;;;;;;;4.35;2.90;;;;;;;10.50;56.93;101151.28;1710012;83;21036;-65
2021/11/06 09:30:23;;;;;;;11.22;4.45;;;;;;;10.47;57.24;101141.53;1728697;81;21965;-64
2021/11/06 09:32:52;;;;;;;5.83;3.35;;;;;;;10.48;58.12;101141.35;1734921;82;21659;-64
2021/11/06 09:35:22;;;;;;;6.35;3.22;;;;;;;10.52;58.75;101143.22;1737422;81;21500;-66
2021/11/06 09:37:52;;;;;;;8.23;4.10;;;;;;;10.58;58.75;101143.02;1726546;82;21050;-65
2021/11/06 09:40:21;;;;;;;6.17;3.85;;;;;;;10.63;58.11;101144.19;1744031;82;21502;-64
2021/11/06 09:42:52;;;;;;;6.33;4.00;;;;;;;10.64;58.58;101144.52;1719963;82;21478;-66
2021/11/06 09:45:21;;;;;;;6.62;4.08;;;;;;;10.65;58.12;101142.63;1737021;82;21092;-64
2021/11/06 09:47:51;;;;;;;5.97;3.20;;;;;;;10.66;58.19;101131.48;1724946;81;21074;-64
2021/11/06 09:50:21;;;;;;;6.17;3.12;;;;;;;10.69;58.07;101133.02;1707673;82;21115;-63
2021/11/06 09:52:51;;;;;;;8.90;4.20;;;;;;;10.75;58.49;101135.03;1719722;82;21112;-65
2021/11/06 09:55:22;;;;;;;8.00;3.77;;;;;;;10.84;58.36;101146.28;1721902;82;21053;-63
2021/11/06 09:57:51;;;;;;;6.17;3.60;;;;;;;10.85;56.97;101131.54;1730197;82;21229;-64
2021/11/06 10:00:20;;;;;;;5.95;3.75;;;;;;;10.83;57.21;101130.02;1719180;82;21173;-64
2021/11/06 10:02:57;;;;;;;7.65;3.72;;;;;;;10.79;57.47;101135.86;1717246;83;21091;-66
2021/11/06 10:05:58;;;;;;;7.28;3.92;;;;;;;10.80;58.18;101132.08;1708326;83;21487;-66
2021/11/06 10:08:36;;;;;;;8.05;4.20;;;;;;;10.85;58.15;101134.80;1732360;82;21062;-67
2021/11/06 10:11:11;;;;;;;;;;;;;;;10.92;57.45;101132.52;1706522;84;21064;-64
2021/11/06 10:14:00;;;;;;;5.95;3.65;;;;;;;10.94;57.45;101126.85;1718077;83;20214;-64
2021/11/06 10:16:35;;;;;;;4.83;3.40;;;;;;;10.95;57.24;101139.53;1715750;83;21044;-65
2021/11/06 10:19:15;;;;;;;6.00;3.50;;;;;;;10.89;56.66;101137.52;1717859;82;21051;-66
2021/11/06 10:21:47;;;;;;;7.67;4.00;;;;;;;10.77;58.01;101128.85;1712480;81;21024;-65
2021/11/06 10:24:19;;;;;;;7.17;4.12;;;;;;;10.65;56.55;101135.78;1734754;83;21097;-65
2021/11/06 10:26:49;;;;;;;5.40;3.27;;;;;;;10.54;57.32;101118.37;1735036;82;21518;-64
2021/11/06 10:29:19;;;;;;;5.45;3.25;;;;;;;10.45;57.39;101126.64;1731980;83;21064;-65
2021/11/06 10:32:02;;;;;;;8.85;3.60;;;;;;;10.41;57.43;101127.17;1717877;83;21063;-64
2021/11/06 10:34:36;;;;;;;7.22;3.47;;;;;;;10.38;56.89;101126.98;1735399;82;21013;-66
2021/11/06 10:37:12;;;;;;;5.22;3.47;;;;;;;10.33;57.49;101126.67;1705009;83;21095;-64
2021/11/06 10:39:59;;;;;;;;;;;;;;;10.29;57.01;101134.91;1706842;83;21492;-65
2021/11/06 10:42:28;;;;;;;5.15;3.25;;;;;;;10.21;57.18;101126.73;1747433;82;20181;-65
2021/11/06 10:45:13;;;;;;;6.25;3.42;;;;;;;10.15;58.57;101128.77;1739651;82;21078;-65
2021/11/06 10:48:09;;;;;;;7.53;3.77;;;;;;;10.13;58.08;101126.73;1748911;82;21021;-65
2021/11/06 10:51:04;;;;;;;8.65;3.80;;;;;;;10.14;58.19;101124.33;1707610;82;21510;-66
2021/11/06 10:53:51;;;;;;;6.17;3.40;;;;;;;10.17;58.11;101119.34;1712752;83;21103;-66
2021/11/06 10:56:42;;;;;;;6.75;3.25;;;;;;;10.19;57.88;101117.80;1715851;83;21123;-64
2021/11/06 10:59:17;;;;;;;5.20;3.12;;;;;;;10.24;56.87;101111.30;1696697;83;21156;-64
2021/11/06 11:01:56;;;;;;;5.40;3.45;;;;;;;10.26;56.76;101111.13;1759958;80;21500;-62
2021/11/06 11:04:25;;;;;;;7.03;3.20;;;;;;;10.27;56.55;101117.80;1742816;82;21096;-65
2021/11/06 11:06:56;;;;;;;5.53;3.47;;;;;;;10.25;56.43;101121.23;1753889;82;21045;-65
2021/11/06 11:09:31;;;;;;;5.53;3.50;;;;;;;10.24;56.89;101115.41;1667402;86;21011;-63
2021/11/06 11:12:03;;;;;;;8.85;3.80;;;;;;;10.27;57.28;101115.58;1664457;86;21072;-65
2021/11/06 11:14:33;;;;;;;4.83;3.15;;;;;;;10.31;57.33;101111.44;1656102;85;21100;-65
2021/11/06 11:17:04;;;;;;;6.72;3.40;;;;;;;10.35;56.66;101114.16;1674776;85;21038;-65
2021/11/06 11:19:46;;;;;;;5.40;3.50;;;;;;;10.37;55.90;101106.11;1666195;86;21115;-65
2021/11/06 11:22:24;;;;;;;5.37;3.52;;;;;;;10.37;56.47;101109.36;1675592;85;21614;-65
2021/11/06 11:24:55;;;;;;;5.83;3.67;;;;;;;10.37;56.49;101107.47;1665909;86;21245;-66
2021/11/06 11:27:26;;;;;;;6.42;3.95;;;;;;;10.37;56.68;101103.88;1699019;82;21080;-66
2021/11/06 11:29:56;;;;;;;8.80;5.17;;;;;;;10.39;57.13;101104.55;1756269;82;20985;-64
2021/11/06 11:32:25;;;;;;;10.13;4.40;;;;;;;10.41;56.98;101102.00;1751502;82;21655;-66
2021/11/06 11:34:54;;;;;;;7.40;4.28;;;;;;;10.44;57.02;101111.23;1750952;80;21013;-66
2021/11/06 11:37:23;;;;;;;6.20;4.03;;;;;;;10.41;56.30;101105.27;1770602;80;21437;-66
2021/11/06 11:39:54;;;;;;;5.90;4.12;;;;;;;10.37;55.79;101105.25;1705674;83;21162;-66
2021/11/06 11:42:46;;;;;;;7.62;3.87;;;;;;;10.33;56.43;101115.71;1723464;83;21063;-66
2021/11/06 11:45:40;;;;;;;10.03;4.03;;;;;;;10.32;56.91;101109.05;1704234;83;21464;-65
2021/11/06 11:48:16;;;;;;;8.35;3.60;;;;;;;10.29;55.93;101110.77;1702325;83;21027;-65